Time;durP1;ratioP1;P1;durP2;ratioP2;P2;SDS_P1;SDS_P2;PMS_P1;PMS_P2;Temp;Humidity;BMP_temperature;BMP_pressure;BME280_temperature;BME280_humidity;BME280_pressure;Samples;Min_cycle;Max_cycle;Signal;HPM_P1;HPM_P2
2023/04/10 00:00:22;;;;;;;81.70;56.10;;;;;;;6.58;100.00;99747.77;109668;1249;58881;-75
2023/04/10 00:03:08;;;;;;;86.30;58.20;;;;;;;6.60;100.00;99748.59;109580;1249;58904;-75
2023/04/10 00:05:35;;;;;;;84.20;57.40;;;;;;;6.61;100.00;99742.02;109704;1249;64833;-75
2023/04/10 00:08:02;;;;;;;82.10;56.80;;;;;;;6.62;100.00;99739.87;109689;1251;60095;-74
2023/04/10 00:10:30;;;;;;;87.80;60.80;;;;;;;6.63;100.00;99737.89;109569;1249;64087;-75
2023/04/10 00:12:57;;;;;;;83.20;57.30;;;;;;;6.65;100.00;99731.30;109704;1249;59074;-74
2023/04/10 00:15:24;;;;;;;83.50;58.30;;;;;;;6.67;100.00;99732.08;109715;1250;59033;-74
2023/04/10 00:17:53;;;;;;;78.40;55.50;;;;;;;6.68;100.00;99730.26;109738;1249;66067;-74
2023/04/10 00:20:21;;;;;;;77.40;54.00;;;;;;;6.70;100.00;99727.39;109710;1250;60345;-75
2023/04/10 00:22:48;;;;;;;81.50;56.00;;;;;;;6.71;100.00;99723.29;109745;1250;64440;-75
2023/04/10 00:25:15;;;;;;;81.40;56.40;;;;;;;6.73;100.00;99722.51;109738;1250;59285;-75
2023/04/10 00:27:41;;;;;;;82.20;56.10;;;;;;;6.75;100.00;99724.17;109755;1250;58964;-75
2023/04/10 00:30:08;;;;;;;79.00;54.50;;;;;;;6.77;100.00;99724.45;109712;1249;64822;-75
2023/04/10 00:32:34;;;;;;;80.70;55.00;;;;;;;6.78;100.00;99725.98;109689;1249;59123;-75
2023/04/10 00:35:01;;;;;;;83.30;56.10;;;;;;;6.80;100.00;99725.54;109412;1249;64043;-75
2023/04/10 00:37:28;;;;;;;84.10;58.20;;;;;;;6.82;100.00;99726.20;109708;1249;59046;-75
2023/04/10 00:39:55;;;;;;;75.90;54.90;;;;;;;6.83;100.00;99724.20;109689;1249;59009;-75
2023/04/10 00:42:21;;;;;;;77.10;53.80;;;;;;;6.84;100.00;99720.10;109673;1251;66024;-75
2023/04/10 00:44:48;;;;;;;80.90;54.10;;;;;;;6.85;100.00;99718.84;109699;1249;60182;-75
2023/04/10 00:47:15;;;;;;;76.50;55.10;;;;;;;6.86;100.00;99717.19;109694;1249;62857;-75
2023/04/10 00:49:43;;;;;;;78.60;54.80;;;;;;;6.88;100.00;99718.91;109578;1250;58940;-75
2023/04/10 00:52:10;;;;;;;76.30;52.30;;;;;;;6.89;100.00;99720.45;109747;1250;59276;-74
2023/04/10 00:54:37;;;;;;;73.90;52.50;;;;;;;6.89;100.00;99720.95;109575;1249;66464;-75
2023/04/10 00:57:04;;;;;;;79.50;53.30;;;;;;;6.90;100.00;99719.69;109713;1250;59973;-75
2023/04/10 00:59:30;;;;;;;71.10;49.10;;;;;;;6.92;100.00;99719.45;109729;1250;62840;-75
2023/04/10 01:01:58;;;;;;;75.90;52.40;;;;;;;6.92;100.00;99719.05;109662;1250;59000;-75
2023/04/10 01:04:28;;;;;;;74.50;52.00;;;;;;;6.93;100.00;99718.16;109558;1251;58986;-75
2023/04/10 01:07:03;;;;;;;;;;;;;;;6.93;100.00;99718.66;109709;1250;67192;-76
2023/04/10 01:09:40;;;;;;;81.10;53.00;;;;;;;6.93;100.00;99717.63;109590;1250;60051;-75
2023/04/10 01:12:28;;;;;;;82.50;54.10;;;;;;;6.95;100.00;99713.86;109599;1250;64110;-75
2023/04/10 01:15:03;;;;;;;77.20;51.10;;;;;;;6.97;100.00;99718.00;109678;1249;58956;-75
2023/04/10 01:17:50;;;;;;;73.20;51.30;;;;;;;6.97;100.00;99716.21;109640;1251;59022;-76
2023/04/10 01:20:30;;;;;;;76.50;51.30;;;;;;;6.98;100.00;99714.78;109758;1249;66058;-75
2023/04/10 01:23:35;;;;;;;76.70;50.50;;;;;;;6.98;100.00;99716.70;109580;1249;60248;-75
2023/04/10 01:26:05;;;;;;;81.10;53.40;;;;;;;6.98;100.00;99716.17;109652;1249;64135;-76
2023/04/10 01:29:02;;;;;;;77.80;52.50;;;;;;;6.98;100.00;99716.34;109696;1249;58952;-75
2023/04/10 01:31:43;;;;;;;81.90;54.40;;;;;;;6.99;100.00;99720.03;109511;1250;59052;-75
2023/04/10 01:34:20;;;;;;;75.30;52.10;;;;;;;6.99;100.00;99723.23;109689;1251;65854;-75
2023/04/10 01:37:01;;;;;;;75.80;51.00;;;;;;;6.99;100.00;99724.27;109541;1250;59131;-76
2023/04/10 01:39:30;;;;;;;77.20;52.00;;;;;;;7.00;100.00;99724.94;109650;1250;64015;-75
2023/04/10 01:41:58;;;;;;;72.80;50.70;;;;;;;7.01;100.00;99728.77;109542;1250;58995;-76
2023/04/10 01:44:30;;;;;;;75.20;50.10;;;;;;;7.02;100.00;99731.54;109539;1249;59087;-74
2023/04/10 01:46:58;;;;;;;81.30;53.00;;;;;;;7.04;100.00;99726.70;109371;1250;66102;-75
2023/04/10 01:49:27;;;;;;;78.50;53.00;;;;;;;7.04;100.00;99726.71;109743;1250;59826;-74
2023/04/10 01:51:57;;;;;;;76.30;50.20;;;;;;;7.05;100.00;99720.83;109573;1249;62858;-75
2023/04/10 01:54:28;;;;;;;77.60;52.40;;;;;;;7.05;100.00;99715.53;109570;1249;58945;-74
2023/04/10 01:56:55;;;;;;;78.10;50.70;;;;;;;7.04;100.00;99720.88;109719;1251;59024;-75
2023/04/10 01:59:22;;;;;;;80.90;51.90;;;;;;;7.03;100.00;99723.75;109700;1249;64805;-75
2023/04/10 02:01:48;;;;;;;75.00;51.40;;;;;;;7.03;100.00;99728.69;109721;1251;58982;-75
2023/04/10 02:04:15;;;;;;;79.10;51.10;;;;;;;7.05;100.00;99724.02;109729;1250;59022;-75
2023/04/10 02:06:56;;;;;;;75.90;50.40;;;;;;;7.04;100.00;99725.48;109664;1250;59201;-75
2023/04/10 02:09:33;;;;;;;76.20;51.60;;;;;;;7.03;100.00;99728.17;109583;1251;59010;-75
2023/04/10 02:12:12;;;;;;;80.60;52.40;;;;;;;7.02;100.00;99727.52;109754;1250;66124;-75
2023/04/10 02:14:42;;;;;;;84.10;53.40;;;;;;;7.02;100.00;99726.44;109310;1249;60265;-75
2023/04/10 02:17:11;;;;;;;;;;;;;;;7.03;100.00;99720.59;109545;1250;62845;-75
2023/04/10 02:19:39;;;;;;;82.50;51.30;;;;;;;7.03;100.00;99720.08;109715;1249;58941;-75
2023/04/10 02:22:07;;;;;;;79.10;51.40;;;;;;;7.01;100.00;99719.25;109760;1250;59098;-76
2023/04/10 02:24:34;;;;;;;86.60;53.80;;;;;;;6.99;100.00;99717.73;109724;1249;66017;-75
2023/04/10 02:27:01;;;;;;;86.30;54.30;;;;;;;6.98;100.00;99717.25;109747;1249;60479;-75
2023/04/10 02:29:27;;;;;;;85.90;54.70;;;;;;;6.98;100.00;99715.67;109731;1250;65285;-75
2023/04/10 02:31:54;;;;;;;87.70;55.60;;;;;;;6.97;100.00;99720.29;109660;1249;58927;-75
2023/04/10 02:34:21;;;;;;;87.30;51.10;;;;;;;6.98;100.00;99723.27;109692;1250;59053;-75
2023/04/10 02:36:48;;;;;;;84.90;53.50;;;;;;;6.98;100.00;99725.04;109706;1249;64825;-75
2023/04/10 02:39:14;;;;;;;88.60;54.90;;;;;;;6.97;100.00;99723.29;109702;1251;60326;-75
2023/04/10 02:41:41;;;;;;;91.00;55.90;;;;;;;6.96;100.00;99724.39;109713;1249;64119;-75
2023/04/10 02:44:07;;;;;;;87.20;53.40;;;;;;;6.95;100.00;99726.19;109666;1250;59012;-75
2023/04/10 02:46:34;;;;;;;92.20;56.30;;;;;;;6.94;100.00;99728.36;109728;1249;59029;-75
2023/04/10 02:49:00;;;;;;;90.70;53.00;;;;;;;6.95;100.00;99729.72;109722;1250;64814;-75
2023/04/10 02:51:27;;;;;;;96.20;55.00;;;;;;;6.96;100.00;99732.18;109745;1250;58907;-75
2023/04/10 02:53:53;;;;;;;99.00;55.90;;;;;;;6.95;100.00;99732.20;109688;1250;59028;-75
2023/04/10 02:56:20;;;;;;;91.90;57.80;;;;;;;6.97;100.00;99734.09;109669;1249;58961;-75
2023/04/10 02:58:46;;;;;;;90.10;56.60;;;;;;;6.97;100.00;99732.98;109465;1250;59094;-75
2023/04/10 03:01:13;;;;;;;93.30;55.10;;;;;;;6.98;100.00;99727.50;109710;1250;66992;-75
2023/04/10 03:03:39;;;;;;;93.00;56.50;;;;;;;6.98;100.00;99721.49;109686;1250;60205;-75
2023/04/10 03:06:07;;;;;;;91.90;55.10;;;;;;;6.97;100.00;99723.09;109670;1249;59179;-74
2023/04/10 03:08:34;;;;;;;100.30;57.40;;;;;;;6.97;100.00;99725.92;109669;1249;59057;-75
2023/04/10 03:11:00;;;;;;;98.50;55.60;;;;;;;6.99;100.00;99730.98;109671;1250;59022;-73
2023/04/10 03:13:27;;;;;;;96.10;55.20;;;;;;;6.99;100.00;99726.75;109687;1250;66018;-73
2023/04/10 03:15:53;;;;;;;99.70;55.20;;;;;;;6.98;100.00;99728.38;109741;1250;60264;-73
2023/04/10 03:18:21;;;;;;;93.80;53.40;;;;;;;6.96;100.00;99727.37;109679;1250;59060;-73
2023/04/10 03:20:47;;;;;;;92.50;54.10;;;;;;;6.94;100.00;99721.63;109661;1250;59366;-73
2023/04/10 03:23:14;;;;;;;98.00;55.70;;;;;;;6.93;100.00;99717.26;109666;1250;59052;-73
2023/04/10 03:25:42;;;;;;;102.00;57.60;;;;;;;6.92;100.00;99710.95;109695;1250;66157;-73
2023/04/10 03:28:08;;;;;;;98.60;57.80;;;;;;;6.90;100.00;99705.92;109701;1250;59831;-73
2023/04/10 03:30:35;;;;;;;97.50;57.30;;;;;;;6.86;100.00;99706.77;109671;1249;58981;-73
2023/04/10 03:33:02;;;;;;;100.80;55.00;;;;;;;6.85;100.00;99708.79;109185;1249;58947;-73
2023/04/10 03:35:29;;;;;;;102.50;57.90;;;;;;;6.84;100.00;99712.33;109690;1250;59011;-73
2023/04/10 03:37:55;;;;;;;103.60;57.90;;;;;;;6.86;100.00;99718.64;109679;1250;66066;-73
2023/04/10 03:40:22;;;;;;;97.50;56.50;;;;;;;6.86;100.00;99717.04;109604;1250;59122;-73
2023/04/10 03:42:48;;;;;;;105.40;57.30;;;;;;;6.84;100.00;99716.94;109725;1249;59031;-73
2023/04/10 03:45:15;;;;;;;104.10;57.10;;;;;;;6.82;100.00;99717.20;109724;1250;59009;-73
2023/04/10 03:47:41;;;;;;;98.90;55.20;;;;;;;6.80;100.00;99718.33;109719;1250;59025;-73
2023/04/10 03:50:08;;;;;;;105.90;56.90;;;;;;;6.78;100.00;99720.16;109714;1250;64899;-73
2023/04/10 03:52:35;;;;;;;104.70;58.60;;;;;;;6.77;100.00;99722.67;109711;1249;60279;-73
2023/04/10 03:55:01;;;;;;;114.40;58.50;;;;;;;6.77;100.00;99728.65;109680;1251;59029;-72
2023/04/10 03:57:28;;;;;;;108.70;57.80;;;;;;;6.79;100.00;99733.20;109667;1249;58982;-73
2023/04/10 03:59:54;;;;;;;107.40;56.40;;;;;;;6.81;100.00;99735.77;109726;1250;58904;-73
2023/04/10 04:02:21;;;;;;;106.60;56.10;;;;;;;6.82;100.00;99735.38;109698;1251;66039;-74
2023/04/10 04:04:48;;;;;;;103.70;54.30;;;;;;;6.81;100.00;99736.66;109714;1250;59184;-73
2023/04/10 04:07:14;;;;;;;115.90;56.60;;;;;;;6.80;100.00;99738.12;109325;1250;64048;-73
2023/04/10 04:09:41;;;;;;;111.80;55.50;;;;;;;6.79;100.00;99739.54;109709;1250;59025;-72
2023/04/10 04:12:08;;;;;;;112.30;55.60;;;;;;;6.80;100.00;99738.98;109719;1250;58889;-73
2023/04/10 04:14:35;;;;;;;106.70;53.80;;;;;;;6.79;100.00;99731.59;109706;1250;66032;-72
2023/04/10 04:17:01;;;;;;;111.90;56.50;;;;;;;6.78;100.00;99735.16;109713;1250;59083;-72
2023/04/10 04:19:28;;;;;;;122.10;56.60;;;;;;;6.78;100.00;99732.18;109548;1249;59537;-72
2023/04/10 04:21:54;;;;;;;116.40;57.20;;;;;;;6.76;100.00;99733.84;109663;1251;59013;-73
2023/04/10 04:24:21;;;;;;;113.90;54.60;;;;;;;6.74;100.00;99734.96;109704;1250;59102;-73
2023/04/10 04:26:47;;;;;;;118.10;54.80;;;;;;;6.72;100.00;99734.36;109707;1250;59147;-73
2023/04/10 04:29:14;;;;;;;111.00;54.20;;;;;;;6.69;100.00;99738.19;109687;1250;60141;-73
2023/04/10 04:31:41;;;;;;;121.00;54.60;;;;;;;6.70;100.00;99738.16;109654;1249;62829;-73
2023/04/10 04:34:07;;;;;;;122.30;56.90;;;;;;;6.69;100.00;99739.78;109703;1250;59160;-73
2023/04/10 04:36:33;;;;;;;114.90;55.10;;;;;;;6.69;100.00;99745.60;109695;1253;59312;-74
2023/04/10 04:39:00;;;;;;;122.50;59.10;;;;;;;6.69;100.00;99742.95;109700;1250;59068;-73
2023/04/10 04:41:29;;;;;;;124.20;56.00;;;;;;;6.71;100.00;99741.30;109736;1249;59099;-73
2023/04/10 04:43:55;;;;;;;112.80;53.50;;;;;;;6.71;100.00;99736.68;109713;1250;62826;-73
2023/04/10 04:46:22;;;;;;;124.50;59.20;;;;;;;6.70;100.00;99738.33;109697;1251;58970;-73
2023/04/10 04:48:49;;;;;;;111.70;56.60;;;;;;;6.69;100.00;99739.08;109684;1251;58881;-74
2023/04/10 04:51:15;;;;;;;120.30;57.60;;;;;;;6.68;100.00;99736.64;109377;1251;66314;-73
2023/04/10 04:53:42;;;;;;;117.30;57.10;;;;;;;6.68;100.00;99739.80;109428;1250;59078;-73
2023/04/10 04:56:08;;;;;;;130.00;56.70;;;;;;;6.68;100.00;99734.33;109712;1251;59022;-74
2023/04/10 04:58:35;;;;;;;125.60;57.00;;;;;;;6.69;100.00;99734.30;109410;1250;59027;-74
2023/04/10 05:01:01;;;;;;;133.30;57.80;;;;;;;6.70;100.00;99738.69;109687;1250;59002;-74
2023/04/10 05:03:28;;;;;;;122.90;58.80;;;;;;;6.71;100.00;99740.59;109691;1251;65941;-74
2023/04/10 05:05:55;;;;;;;121.00;57.60;;;;;;;6.73;100.00;99741.57;109707;1251;59979;-74
2023/04/10 05:08:22;;;;;;;126.60;55.90;;;;;;;6.75;100.00;99747.50;109585;1250;64164;-73
2023/04/10 05:10:49;;;;;;;126.30;59.00;;;;;;;6.76;100.00;99751.35;109683;1251;58985;-73
2023/04/10 05:13:16;;;;;;;116.90;56.10;;;;;;;6.78;100.00;99750.52;109643;1249;59063;-73
2023/04/10 05:15:43;;;;;;;125.50;60.00;;;;;;;6.81;100.00;99754.67;109665;1251;64825;-73
2023/04/10 05:18:11;;;;;;;118.80;58.20;;;;;;;6.83;100.00;99757.23;109717;1251;59060;-74
2023/04/10 05:20:38;;;;;;;122.40;59.80;;;;;;;6.83;100.00;99760.25;109699;1249;64055;-74
2023/04/10 05:23:04;;;;;;;128.10;58.60;;;;;;;6.82;100.00;99766.46;109662;1250;58964;-74
2023/04/10 05:25:31;;;;;;;128.60;59.10;;;;;;;6.83;100.00;99767.33;109723;1250;58997;-73
2023/04/10 05:27:57;;;;;;;125.40;60.20;;;;;;;6.84;100.00;99769.75;109740;1250;59521;-74
2023/04/10 05:30:24;;;;;;;122.10;60.30;;;;;;;6.85;100.00;99772.16;109383;1251;59186;-74
2023/04/10 05:32:50;;;;;;;132.90;61.20;;;;;;;6.85;100.00;99770.05;109644;1252;64031;-74
2023/04/10 05:35:17;;;;;;;129.60;61.20;;;;;;;6.88;100.00;99770.33;109710;1250;58929;-74
2023/04/10 05:37:44;;;;;;;131.60;59.90;;;;;;;6.88;100.00;99771.55;109712;1250;58956;-73
2023/04/10 05:40:10;;;;;;;123.00;59.30;;;;;;;6.88;100.00;99774.35;109675;1250;64868;-74
2023/04/10 05:42:37;;;;;;;130.90;61.60;;;;;;;6.88;100.00;99776.48;109702;1251;59067;-74
2023/04/10 05:45:04;;;;;;;141.70;63.50;;;;;;;6.88;100.00;99777.38;109418;1251;64151;-73
2023/04/10 05:47:30;;;;;;;145.70;63.30;;;;;;;6.89;100.00;99776.43;109328;1251;59381;-74
2023/04/10 05:49:57;;;;;;;141.00;64.00;;;;;;;6.91;100.00;99773.19;109700;1251;59134;-73
2023/04/10 05:52:24;;;;;;;135.10;62.30;;;;;;;6.92;100.00;99772.07;109708;1253;59582;-73
2023/04/10 05:54:53;;;;;;;143.70;70.50;;;;;;;6.92;100.00;99771.88;109675;1250;59017;-74
2023/04/10 05:57:20;;;;;;;138.50;66.60;;;;;;;6.92;100.00;99769.41;109709;1249;64111;-74
2023/04/10 05:59:46;;;;;;;151.50;71.80;;;;;;;6.94;100.00;99769.17;109706;1250;59008;-73
2023/04/10 06:02:12;;;;;;;141.70;64.70;;;;;;;6.95;100.00;99766.65;109736;1251;59309;-73
2023/04/10 06:04:39;;;;;;;137.90;62.70;;;;;;;6.98;100.00;99767.78;109724;1251;58942;-73
2023/04/10 06:07:06;;;;;;;147.40;67.50;;;;;;;7.00;100.00;99765.59;109727;1253;58945;-74
2023/04/10 06:09:33;;;;;;;141.60;64.10;;;;;;;7.03;100.00;99767.39;109550;1249;64085;-74
2023/04/10 06:12:00;;;;;;;131.90;60.60;;;;;;;7.04;100.00;99770.20;109684;1249;58982;-73
2023/04/10 06:14:26;;;;;;;144.50;63.60;;;;;;;7.02;100.00;99767.43;109747;1250;58966;-73
2023/04/10 06:16:53;;;;;;;139.60;64.80;;;;;;;7.00;100.00;99766.80;109405;1250;59724;-73
2023/04/10 06:19:19;;;;;;;126.60;59.70;;;;;;;7.01;100.00;99772.59;109710;1251;59880;-73
2023/04/10 06:21:46;;;;;;;143.50;66.10;;;;;;;7.02;100.00;99773.10;109695;1249;64599;-73
2023/04/10 06:24:13;;;;;;;141.50;64.50;;;;;;;7.03;100.00;99772.52;109694;1251;59704;-73
2023/04/10 06:26:39;;;;;;;134.60;62.80;;;;;;;7.04;100.00;99770.54;109697;1249;59028;-73
2023/04/10 06:29:06;;;;;;;147.10;67.80;;;;;;;7.06;100.00;99770.83;109707;1250;66103;-73
2023/04/10 06:31:32;;;;;;;133.90;62.10;;;;;;;7.07;100.00;99773.94;109672;1251;58992;-74
2023/04/10 06:33:59;;;;;;;147.60;63.20;;;;;;;7.10;100.00;99775.43;109684;1250;65143;-73
2023/04/10 06:36:26;;;;;;;144.00;64.10;;;;;;;7.11;100.00;99774.16;109679;1253;59026;-73
2023/04/10 06:38:52;;;;;;;146.10;63.40;;;;;;;7.09;100.00;99771.38;109700;1250;59040;-72
2023/04/10 06:41:19;;;;;;;139.00;59.50;;;;;;;7.10;100.00;99774.19;109447;1251;59666;-72
2023/04/10 06:43:46;;;;;;;132.70;61.20;;;;;;;7.10;100.00;99777.01;109731;1249;60100;-72
2023/04/10 06:46:14;;;;;;;134.00;60.10;;;;;;;7.09;100.00;99780.58;109719;1251;62854;-73
2023/04/10 06:48:41;;;;;;;140.20;59.40;;;;;;;7.08;100.00;99785.23;108901;1253;1002456;-73
2023/04/10 06:51:07;;;;;;;141.00;63.80;;;;;;;7.07;100.00;99789.67;109730;1249;59030;-72
2023/04/10 06:53:34;;;;;;;137.10;59.60;;;;;;;7.08;100.00;99794.23;109719;1251;58981;-73
2023/04/10 06:56:01;;;;;;;144.10;61.20;;;;;;;7.07;100.00;99793.92;109768;1251;59103;-72
2023/04/10 06:58:28;;;;;;;140.20;61.20;;;;;;;7.08;100.00;99800.94;109721;1250;59201;-72
2023/04/10 07:00:56;;;;;;;127.60;58.40;;;;;;;7.09;100.00;99796.84;109694;1250;59031;-73
2023/04/10 07:03:23;;;;;;;128.80;56.70;;;;;;;7.11;100.00;99796.95;109717;1251;58961;-73
2023/04/10 07:05:49;;;;;;;136.10;58.00;;;;;;;7.11;100.00;99792.69;109670;1251;59612;-73
2023/04/10 07:08:16;;;;;;;116.20;54.00;;;;;;;7.13;100.00;99788.20;109707;1249;59060;-73
2023/04/10 07:10:42;;;;;;;113.40;55.50;;;;;;;7.14;100.00;99781.80;109677;1251;64065;-73
2023/04/10 07:13:09;;;;;;;110.70;53.00;;;;;;;7.15;100.00;99781.56;109662;1251;59031;-74
2023/04/10 07:15:36;;;;;;;110.90;53.40;;;;;;;7.18;100.00;99783.59;109450;1251;59125;-74
2023/04/10 07:18:02;;;;;;;89.00;45.20;;;;;;;7.21;100.00;99782.23;109708;1250;64849;-73
2023/04/10 07:20:29;;;;;;;103.80;49.40;;;;;;;7.23;100.00;99786.01;109684;1251;58990;-74
2023/04/10 07:22:56;;;;;;;101.10;50.00;;;;;;;7.26;100.00;99785.20;109679;1251;64118;-73
2023/04/10 07:25:22;;;;;;;100.30;48.70;;;;;;;7.31;100.00;99785.55;109688;1249;58982;-73
2023/04/10 07:27:49;;;;;;;107.00;49.90;;;;;;;7.36;100.00;99786.05;109695;1251;58999;-73
2023/04/10 07:30:15;;;;;;;109.10;50.50;;;;;;;7.40;100.00;99783.56;109669;1251;58967;-73
2023/04/10 07:32:42;;;;;;;100.60;49.30;;;;;;;7.46;100.00;99783.85;109693;1251;59010;-73
2023/04/10 07:35:08;;;;;;;99.70;49.20;;;;;;;7.52;100.00;99781.83;109407;1250;59116;-73
2023/04/10 07:37:35;;;;;;;95.30;47.10;;;;;;;7.59;100.00;99781.17;109696;1251;59394;-74
2023/04/10 07:40:02;;;;;;;94.20;47.60;;;;;;;7.65;100.00;99780.06;109716;1249;59193;-73
2023/04/10 07:42:29;;;;;;;98.30;49.50;;;;;;;7.70;100.00;99782.51;109694;1251;64710;-73
2023/04/10 07:44:56;;;;;;;97.60;47.00;;;;;;;7.75;100.00;99781.04;109297;1257;59378;-74
2023/04/10 07:47:22;;;;;;;98.20;49.30;;;;;;;7.82;100.00;99779.14;109282;1255;64166;-74
2023/04/10 07:49:49;;;;;;;97.00;46.60;;;;;;;7.93;100.00;99779.38;109237;1256;59027;-74
2023/04/10 07:52:15;;;;;;;101.40;49.90;;;;;;;7.97;100.00;99780.78;109269;1255;58855;-73
2023/04/10 07:54:42;;;;;;;97.10;49.70;;;;;;;7.99;100.00;99779.10;109273;1256;64807;-74
2023/04/10 07:57:08;;;;;;;89.40;47.30;;;;;;;8.00;100.00;99779.23;109276;1256;59018;-74
2023/04/10 07:59:35;;;;;;;103.20;50.60;;;;;;;8.00;100.00;99782.80;109253;1257;59133;-74
2023/04/10 08:02:01;;;;;;;90.60;46.20;;;;;;;7.99;100.00;99783.19;109213;1257;59430;-73
2023/04/10 08:04:28;;;;;;;92.40;46.20;;;;;;;8.02;100.00;99785.00;109274;1256;59347;-74
2023/04/10 08:06:54;;;;;;;95.40;47.50;;;;;;;8.05;100.00;99788.58;109244;1257;65774;-73
2023/04/10 08:09:21;;;;;;;90.60;45.10;;;;;;;8.06;100.00;99792.09;109276;1257;59132;-72
2023/04/10 08:11:47;;;;;;;97.80;47.90;;;;;;;8.04;100.00;99793.08;109141;1257;58994;-74
2023/04/10 08:14:14;;;;;;;102.10;48.60;;;;;;;8.01;100.00;99787.53;109238;1260;58975;-73
2023/04/10 08:16:41;;;;;;;107.00;51.70;;;;;;;8.07;100.00;99791.54;109294;1251;59111;-73
2023/04/10 08:19:07;;;;;;;102.30;49.20;;;;;;;8.08;100.00;99789.88;109698;1251;59558;-73
2023/04/10 08:21:34;;;;;;;98.60;49.10;;;;;;;8.08;100.00;99786.69;109721;1250;59349;-73
2023/04/10 08:24:02;;;;;;;101.80;51.20;;;;;;;8.09;100.00;99784.52;109686;1251;62841;-74
2023/04/10 08:26:29;;;;;;;98.90;50.50;;;;;;;8.07;100.00;99784.24;109701;1251;59034;-73
2023/04/10 08:28:57;;;;;;;98.00;48.20;;;;;;;8.09;100.00;99782.55;109726;1251;59038;-73
2023/04/10 08:31:26;;;;;;;103.20;53.50;;;;;;;8.17;100.00;99781.02;109691;1250;67782;-73
2023/04/10 08:33:53;;;;;;;105.10;53.00;;;;;;;8.27;100.00;99778.23;109724;1250;59888;-73
2023/04/10 08:36:20;;;;;;;105.80;51.30;;;;;;;8.34;100.00;99773.30;109683;1250;64055;-73
2023/04/10 08:38:47;;;;;;;98.50;50.90;;;;;;;8.36;100.00;99775.14;109682;1251;59283;-73
2023/04/10 08:41:18;;;;;;;99.90;51.70;;;;;;;8.46;100.00;99776.17;109707;1250;59014;-74
2023/04/10 08:43:45;;;;;;;98.40;51.50;;;;;;;8.55;100.00;99776.45;109556;1251;66223;-74
2023/04/10 08:46:13;;;;;;;96.20;51.50;;;;;;;8.61;100.00;99779.02;109581;1250;59317;-73
2023/04/10 08:49:00;;;;;;;87.50;48.00;;;;;;;8.68;100.00;99780.27;109603;1251;64156;-73
2023/04/10 08:51:31;;;;;;;94.90;49.50;;;;;;;8.77;100.00;99776.68;109542;1249;58993;-73
2023/04/10 08:54:05;;;;;;;93.00;49.70;;;;;;;8.81;100.00;99777.73;109697;1251;59025;-73
2023/04/10 08:56:32;;;;;;;95.60;52.80;;;;;;;8.82;100.00;99774.68;109568;1251;66074;-73
2023/04/10 08:59:01;;;;;;;89.40;47.80;;;;;;;8.84;100.00;99771.20;109720;1250;60190;-73
2023/04/10 09:01:28;;;;;;;91.00;47.20;;;;;;;8.91;100.00;99771.92;109720;1251;63775;-73
2023/04/10 09:03:55;;;;;;;88.00;48.50;;;;;;;8.98;100.00;99772.67;109670;1250;58975;-73
2023/04/10 09:06:21;;;;;;;90.50;48.90;;;;;;;9.03;100.00;99771.52;109680;1250;59238;-73
2023/04/10 09:08:47;;;;;;;83.90;46.10;;;;;;;9.08;100.00;99774.16;109745;1251;59580;-73
2023/04/10 09:11:14;;;;;;;87.00;49.90;;;;;;;9.11;100.00;99770.96;109742;1250;58978;-73
2023/04/10 09:13:42;;;;;;;83.60;46.00;;;;;;;9.16;100.00;99773.23;109677;1250;65266;-73
2023/04/10 09:16:10;;;;;;;84.70;44.90;;;;;;;9.17;100.00;99775.83;109752;1250;58964;-72
2023/04/10 09:18:49;;;;;;;81.40;47.60;;;;;;;9.15;100.00;99773.83;109716;1250;58925;-73
2023/04/10 09:21:20;;;;;;;81.80;47.10;;;;;;;9.13;100.00;99770.89;109703;1249;66042;-73
2023/04/10 09:23:47;;;;;;;85.20;47.70;;;;;;;9.14;100.00;99766.74;109545;1250;181994;-73
2023/04/10 09:26:30;;;;;;;83.80;49.00;;;;;;;9.17;100.00;99767.88;109691;1250;63904;-73
2023/04/10 09:28:57;;;;;;;82.00;45.40;;;;;;;9.19;100.00;99767.94;109695;1250;58973;-72
2023/04/10 09:31:32;;;;;;;82.20;46.50;;;;;;;9.22;100.00;99769.01;109686;1251;59005;-72
2023/04/10 09:34:10;;;;;;;85.50;48.00;;;;;;;9.30;100.00;99766.33;109696;1251;64871;-72
2023/04/10 09:36:37;;;;;;;80.10;45.70;;;;;;;9.40;100.00;99764.80;109563;1251;59288;-73
2023/04/10 09:39:04;;;;;;;77.40;46.00;;;;;;;9.48;100.00;99762.46;109733;1250;62597;-73
2023/04/10 09:41:31;;;;;;;73.60;44.50;;;;;;;9.50;100.00;99762.48;109433;1251;59113;-73
2023/04/10 09:44:09;;;;;;;76.60;45.40;;;;;;;9.51;100.00;99760.67;109687;1250;59072;-73
2023/04/10 09:46:35;;;;;;;72.00;42.90;;;;;;;9.56;100.00;99760.78;109688;1250;64870;-73
2023/04/10 09:49:04;;;;;;;75.40;42.60;;;;;;;9.59;100.00;99758.13;109710;1251;58982;-73
2023/04/10 09:51:33;;;;;;;71.90;43.80;;;;;;;9.64;100.00;99749.88;109577;1250;64289;-72
2023/04/10 09:54:01;;;;;;;68.40;41.50;;;;;;;9.71;100.00;99749.91;109516;1249;58972;-72
2023/04/10 09:56:29;;;;;;;70.00;44.00;;;;;;;9.73;100.00;99747.54;109765;1250;58989;-72
2023/04/10 09:58:58;;;;;;;73.60;44.90;;;;;;;9.78;100.00;99748.31;109683;1251;67160;-73
2023/04/10 10:01:29;;;;;;;70.50;43.70;;;;;;;9.86;100.00;99748.77;109578;1251;58956;-73
2023/04/10 10:04:00;;;;;;;70.10;42.70;;;;;;;9.95;100.00;99748.13;109582;1249;64079;-72
2023/04/10 10:06:30;;;;;;;77.20;46.40;;;;;;;10.01;100.00;99744.27;109353;1250;58979;-72
2023/04/10 10:09:00;;;;;;;;;;;;;;;10.08;100.00;99742.83;109717;1250;58950;-72
2023/04/10 10:11:28;;;;;;;66.80;41.70;;;;;;;10.13;100.00;99740.78;109695;1251;66727;-72
2023/04/10 10:13:57;;;;;;;71.60;44.80;;;;;;;10.15;100.00;99744.59;109723;1250;60201;-72
2023/04/10 10:16:38;;;;;;;72.20;45.70;;;;;;;10.16;100.00;99743.48;109683;1249;65334;-72
2023/04/10 10:19:23;;;;;;;78.50;47.50;;;;;;;10.21;100.00;99740.04;109540;1251;58965;-72
2023/04/10 10:21:52;;;;;;;81.50;48.40;;;;;;;10.22;100.00;99737.64;109740;1251;58944;-72
2023/04/10 10:24:20;;;;;;;85.40;51.30;;;;;;;10.23;100.00;99741.66;109689;1250;64761;-72
2023/04/10 10:26:47;;;;;;;75.00;47.70;;;;;;;10.25;100.00;99740.55;109696;1250;58998;-73
2023/04/10 10:29:16;;;;;;;82.10;49.00;;;;;;;10.25;100.00;99742.63;109712;1249;64028;-72
2023/04/10 10:31:43;;;;;;;84.60;51.50;;;;;;;10.27;100.00;99742.89;109680;1250;59015;-73
2023/04/10 10:34:10;;;;;;;82.00;49.50;;;;;;;10.31;100.00;99737.20;109596;1249;59209;-74
2023/04/10 10:36:38;;;;;;;82.40;50.20;;;;;;;10.35;100.00;99732.22;109715;1251;67281;-73
2023/04/10 10:39:23;;;;;;;84.90;49.90;;;;;;;10.38;100.00;99728.63;109717;1249;61300;-73
2023/04/10 10:42:04;;;;;;;86.10;51.60;;;;;;;10.45;100.00;99721.52;109651;1250;64063;-73
2023/04/10 10:44:44;;;;;;;84.00;50.00;;;;;;;10.51;100.00;99718.69;109652;1251;59424;-73
2023/04/10 10:47:19;;;;;;;;;;;;;;;10.50;100.00;99716.63;109752;1250;59862;-73
2023/04/10 10:49:55;;;;;;;85.00;51.60;;;;;;;10.52;100.00;99711.85;109711;1250;64848;-73
2023/04/10 10:52:41;;;;;;;93.30;54.30;;;;;;;10.63;100.00;99712.55;109700;1250;59816;-73
2023/04/10 10:55:27;;;;;;;90.80;53.60;;;;;;;10.70;100.00;99708.94;109700;1250;64049;-73
2023/04/10 10:57:54;;;;;;;90.20;52.80;;;;;;;10.72;100.00;99706.71;109699;1250;58921;-72
2023/04/10 11:00:23;;;;;;;80.40;50.20;;;;;;;10.74;100.00;99705.88;109413;1249;59063;-72
2023/04/10 11:03:08;;;;;;;85.20;53.80;;;;;;;10.82;100.00;99705.05;109710;1251;65960;-73
2023/04/10 11:05:56;;;;;;;80.90;51.10;;;;;;;10.90;100.00;99704.47;109717;1250;61014;-73
2023/04/10 11:08:31;;;;;;;85.70;54.50;;;;;;;10.96;100.00;99702.30;109690;1250;62844;-73
2023/04/10 11:11:02;;;;;;;92.60;56.60;;;;;;;11.01;100.00;99700.23;109703;1249;59007;-73
2023/04/10 11:13:30;;;;;;;95.70;55.40;;;;;;;11.01;100.00;99698.86;109397;1250;59084;-73